createdAt,value
2022-10-20T00:03:47.481Z,58.04
2022-10-20T00:08:50.231Z,58.38
2022-10-20T00:13:54.338Z,57.67
2022-10-20T00:18:58.212Z,57.58
2022-10-20T00:24:01.838Z,57.49
2022-10-20T00:29:05.078Z,57.70
2022-10-20T00:34:07.574Z,57.43
2022-10-20T00:39:09.752Z,57.58
2022-10-20T00:44:49.523Z,57.48
2022-10-20T00:49:52.243Z,57.67
2022-10-20T00:54:54.529Z,57.78
2022-10-20T00:59:56.886Z,57.95
2022-10-20T01:04:59.345Z,57.91
2022-10-20T01:10:02.955Z,57.25
2022-10-20T01:15:33.237Z,57.22
2022-10-20T01:20:56.426Z,58.03
2022-10-20T01:26:32.483Z,58.23
2022-10-20T01:31:49.341Z,58.52
2022-10-20T01:37:05.314Z,58.69
2022-10-20T01:42:20.286Z,57.96
2022-10-20T01:47:25.791Z,58.20
2022-10-20T01:52:29.576Z,58.11
2022-10-20T01:57:56.493Z,57.66
2022-10-20T02:03:20.894Z,58.15
2022-10-20T02:08:35.141Z,58.06
2022-10-20T02:13:40.142Z,58.23
2022-10-20T02:18:44.445Z,57.97
2022-10-20T02:23:50.079Z,57.45
2022-10-20T02:29:01.135Z,57.74
2022-10-20T02:34:04.183Z,57.81
2022-10-20T02:39:06.780Z,57.81
2022-10-20T02:44:09.186Z,57.47
2022-10-20T02:49:11.405Z,57.48
2022-10-20T02:54:13.685Z,59.05
2022-10-20T02:59:20.082Z,58.50
2022-10-20T03:04:22.369Z,59.04
2022-10-20T03:09:24.666Z,59.21
2022-10-20T03:14:26.852Z,58.86
2022-10-20T03:19:29.042Z,58.86
2022-10-20T03:24:31.320Z,58.77
2022-10-20T03:29:33.599Z,58.53
2022-10-20T03:34:35.819Z,59.74
2022-10-20T03:39:38.015Z,58.91
2022-10-20T03:44:40.394Z,58.45
2022-10-20T03:49:42.706Z,58.59
2022-10-20T03:54:44.922Z,58.67
2022-10-20T03:59:47.282Z,59.55
2022-10-20T04:04:49.485Z,59.30
2022-10-20T04:09:51.769Z,59.71
2022-10-20T04:14:54.130Z,59.12
2022-10-20T04:19:56.328Z,58.77
2022-10-20T04:24:58.764Z,59.48
2022-10-20T04:30:01.268Z,59.54
2022-10-20T04:35:04.088Z,59.26
2022-10-20T04:40:07.531Z,59.10
2022-10-20T04:45:10.278Z,59.74
2022-10-20T04:50:12.681Z,59.54
2022-10-20T04:55:15.535Z,59.45
2022-10-20T05:00:17.791Z,59.46
2022-10-20T05:05:19.975Z,58.91
2022-10-20T05:10:22.356Z,59.43
2022-10-20T05:15:24.551Z,59.33
2022-10-20T05:20:26.749Z,59.65
2022-10-20T05:25:36.551Z,59.63
2022-10-20T05:30:39.226Z,59.08
2022-10-20T05:35:41.721Z,59.75
2022-10-20T05:40:44.147Z,59.49
2022-10-20T05:45:46.323Z,59.62
2022-10-20T05:50:48.524Z,59.56
2022-10-20T05:55:50.737Z,59.43
2022-10-20T06:00:54.240Z,58.74
2022-10-20T06:06:00.418Z,58.99
2022-10-20T06:11:04.603Z,59.00
2022-10-20T06:16:09.735Z,58.27
2022-10-20T06:21:23.395Z,58.28
2022-10-20T06:26:30.082Z,58.08
2022-10-20T06:31:33.926Z,57.92
2022-10-20T06:36:38.316Z,57.92
2022-10-20T06:41:40.681Z,57.68
2022-10-20T06:46:42.900Z,57.40
2022-10-20T06:51:45.302Z,57.03
2022-10-20T06:56:47.655Z,56.94
2022-10-20T07:01:50.103Z,56.57
2022-10-20T07:06:52.329Z,56.66
2022-10-20T07:11:54.634Z,56.53
2022-10-20T07:16:56.971Z,56.35
2022-10-20T07:21:59.189Z,55.61
2022-10-20T07:27:01.381Z,55.37
2022-10-20T07:32:03.634Z,55.32
2022-10-20T07:37:05.958Z,54.69
2022-10-20T07:42:08.398Z,54.32
2022-10-20T07:47:10.726Z,54.07
2022-10-20T07:52:13.119Z,53.33
2022-10-20T07:57:15.529Z,52.97
2022-10-20T08:02:18.131Z,52.79
2022-10-20T08:07:20.326Z,52.30
2022-10-20T08:12:22.570Z,52.11
2022-10-20T08:17:25.875Z,51.29
2022-10-20T08:22:28.108Z,50.82
2022-10-20T08:27:31.357Z,50.50
2022-10-20T08:32:33.974Z,50.24
2022-10-20T08:37:37.326Z,48.77
2022-10-20T08:42:45.446Z,48.80
2022-10-20T08:47:50.001Z,48.74
2022-10-20T08:52:56.659Z,48.03
2022-10-20T08:58:03.453Z,47.68
2022-10-20T09:03:25.023Z,47.62
2022-10-20T09:08:31.492Z,46.97
2022-10-20T09:13:34.661Z,46.68
2022-10-20T09:18:37.125Z,46.61
2022-10-20T09:23:45.370Z,46.37
2022-10-20T09:29:12.028Z,45.66
2022-10-20T09:34:34.742Z,45.91
2022-10-20T09:39:54.920Z,45.86
2022-10-20T09:45:01.952Z,45.18
2022-10-20T09:50:09.286Z,44.39
2022-10-20T09:55:34.450Z,44.47
2022-10-20T10:00:49.637Z,43.60
2022-10-20T10:05:59.924Z,42.95
2022-10-20T10:11:14.656Z,42.69
2022-10-20T10:16:20.751Z,42.53
2022-10-20T10:21:23.400Z,42.23
2022-10-20T10:26:43.576Z,41.75
2022-10-20T10:31:57.714Z,41.42
2022-10-20T10:37:00.292Z,40.84
2022-10-20T10:42:39.837Z,40.39
2022-10-20T10:48:09.194Z,40.42
2022-10-20T10:53:20.224Z,40.04
2022-10-20T10:58:25.559Z,40.32
2022-10-20T11:04:03.088Z,40.04
2022-10-20T11:09:49.401Z,40.10
2022-10-20T11:15:47.205Z,39.57
2022-10-20T11:21:09.976Z,38.81
2022-10-20T11:26:29.151Z,38.52
2022-10-20T11:31:41.397Z,38.16
2022-10-20T11:36:47.960Z,38.09
2022-10-20T11:41:52.731Z,37.62
2022-10-20T11:47:09.186Z,37.36
2022-10-20T11:52:48.740Z,35.83
2022-10-20T11:58:03.014Z,36.54
2022-10-20T12:03:38.871Z,36.65
2022-10-20T12:09:02.795Z,35.46
2022-10-20T12:14:17.316Z,35.44
2022-10-20T12:19:30.026Z,35.53
2022-10-20T12:24:40.883Z,35.41
2022-10-20T12:29:43.024Z,34.99
2022-10-20T12:34:45.511Z,34.22
2022-10-20T12:39:48.277Z,34.39
2022-10-20T12:44:51.277Z,33.87
2022-10-20T12:50:01.818Z,33.85
2022-10-20T12:55:03.973Z,33.18
2022-10-20T13:00:08.287Z,32.76
2022-10-20T13:05:10.436Z,32.67
2022-10-20T13:10:30.481Z,32.40
2022-10-20T13:15:59.147Z,31.44
2022-10-20T13:21:26.539Z,32.34
2022-10-20T13:26:45.714Z,31.92
2022-10-20T13:32:23.572Z,32.09
2022-10-20T13:37:40.548Z,31.46
2022-10-20T13:42:57.317Z,31.09
2022-10-20T13:48:11.579Z,30.91
2022-10-20T13:53:26.284Z,30.69
2022-10-20T13:58:28.698Z,30.71
2022-10-20T14:03:33.229Z,30.53
2022-10-20T14:08:44.226Z,30.38
2022-10-20T14:13:47.048Z,30.04
2022-10-20T14:19:13.412Z,30.23
2022-10-20T14:24:34.527Z,30.12
2022-10-20T14:29:40.385Z,30.08
2022-10-20T14:34:58.174Z,30.06
2022-10-20T14:40:02.937Z,29.49
2022-10-20T14:45:05.844Z,29.71
2022-10-20T14:50:19.361Z,29.82
2022-10-20T14:55:35.538Z,29.87
2022-10-20T15:00:37.956Z,31.13
2022-10-20T15:05:45.581Z,32.34
2022-10-20T15:10:48.381Z,33.76
2022-10-20T15:15:51.057Z,34.32
2022-10-20T15:20:54.623Z,34.97
2022-10-20T15:26:03.293Z,35.56
2022-10-20T15:31:28.688Z,36.27
2022-10-20T15:36:34.189Z,36.88
2022-10-20T15:41:37.292Z,37.51
2022-10-20T15:46:39.574Z,37.69
2022-10-20T15:51:44.877Z,38.20
2022-10-20T15:56:47.571Z,38.51
2022-10-20T16:01:49.935Z,39.14
2022-10-20T16:06:57.699Z,39.48
2022-10-20T16:12:02.594Z,39.48
2022-10-20T16:17:05.022Z,39.58
2022-10-20T16:22:07.481Z,39.65
2022-10-20T16:27:10.114Z,39.71
2022-10-20T16:32:12.449Z,39.96
2022-10-20T16:37:14.834Z,40.30
2022-10-20T16:42:17.118Z,40.40
2022-10-20T16:47:19.445Z,40.40
2022-10-20T16:52:21.750Z,40.54
2022-10-20T16:57:23.951Z,40.77
2022-10-20T17:02:26.146Z,41.02
2022-10-20T17:07:28.377Z,41.17
2022-10-20T17:12:30.629Z,41.47
2022-10-20T17:17:32.839Z,41.58
2022-10-20T17:22:35.515Z,41.58
2022-10-20T17:27:38.003Z,41.50
2022-10-20T17:32:40.426Z,41.50
2022-10-20T17:37:42.622Z,41.54
2022-10-20T17:42:45.045Z,41.78
2022-10-20T17:47:47.298Z,41.71
2022-10-20T17:52:49.658Z,41.74
2022-10-20T17:57:52.329Z,41.81
2022-10-20T18:02:54.594Z,41.88
2022-10-20T18:07:56.951Z,41.88
2022-10-20T18:13:00.085Z,42.30
2022-10-20T18:18:02.493Z,42.61
2022-10-20T18:23:04.703Z,42.87
2022-10-20T18:28:07.061Z,43.55
2022-10-20T18:33:09.611Z,43.94
2022-10-20T18:38:11.825Z,44.51
2022-10-20T18:43:14.026Z,45.23
2022-10-20T18:48:16.967Z,45.77
2022-10-20T18:53:19.324Z,46.09
2022-10-20T18:58:21.873Z,46.49
2022-10-20T19:03:24.363Z,46.89
2022-10-20T19:08:26.828Z,46.95
2022-10-20T19:13:30.078Z,47.35
2022-10-20T19:18:32.637Z,47.77
2022-10-20T19:23:37.945Z,47.90
2022-10-20T19:28:44.401Z,48.38
2022-10-20T19:33:48.789Z,48.34
2022-10-20T19:38:51.253Z,49.09
2022-10-20T19:43:53.826Z,49.15
2022-10-20T19:48:57.797Z,49.31
2022-10-20T19:54:00.569Z,49.50
2022-10-20T19:59:04.615Z,49.96
2022-10-20T20:04:07.184Z,50.09
2022-10-20T20:09:10.798Z,50.28
2022-10-20T20:14:15.882Z,50.42
2022-10-20T20:19:18.285Z,50.75
2022-10-20T20:24:20.632Z,51.17
2022-10-20T20:29:23.007Z,51.02
2022-10-20T20:34:25.416Z,51.31
2022-10-20T20:39:27.813Z,51.60
2022-10-20T20:44:30.032Z,52.57
2022-10-20T20:49:32.311Z,51.85
2022-10-20T20:54:34.490Z,51.89
2022-10-20T20:59:36.907Z,52.18
2022-10-20T21:04:39.166Z,52.40
2022-10-20T21:09:41.561Z,52.69
2022-10-20T21:14:44.051Z,52.67
2022-10-20T21:19:46.239Z,52.88
2022-10-20T21:24:48.501Z,52.55
2022-10-20T21:29:51.519Z,52.95
2022-10-20T21:34:55.767Z,53.08
2022-10-20T21:39:57.950Z,53.45
2022-10-20T21:45:00.119Z,53.24
2022-10-20T21:50:02.413Z,53.25
2022-10-20T21:55:05.399Z,53.19
2022-10-20T22:00:09.386Z,53.26
2022-10-20T22:05:11.784Z,53.30
2022-10-20T22:10:14.320Z,53.52
2022-10-20T22:15:16.879Z,53.83
2022-10-20T22:20:19.623Z,54.37
2022-10-20T22:25:22.097Z,54.77
2022-10-20T22:30:24.239Z,54.48
2022-10-20T22:35:26.730Z,54.19
2022-10-20T22:40:28.925Z,54.15
2022-10-20T22:45:32.563Z,53.50
2022-10-20T22:50:34.828Z,53.98
2022-10-20T22:55:37.294Z,54.22
2022-10-20T23:00:40.803Z,54.45
2022-10-20T23:05:43.180Z,54.31
2022-10-20T23:10:45.484Z,54.30
2022-10-20T23:15:52.649Z,54.63
2022-10-20T23:20:57.374Z,54.54
2022-10-20T23:26:03.662Z,54.52
2022-10-20T23:31:18.749Z,54.70
2022-10-20T23:36:21.367Z,54.67
2022-10-20T23:41:23.638Z,54.67
2022-10-20T23:46:26.006Z,54.70
2022-10-20T23:51:28.531Z,54.91
2022-10-20T23:56:30.779Z,54.68
